Time;durP1;ratioP1;P1;durP2;ratioP2;P2;SDS_P1;SDS_P2;PMS_P1;PMS_P2;Temp;Humidity;BMP_temperature;BMP_pressure;BME280_temperature;BME280_humidity;BME280_pressure;Samples;Min_cycle;Max_cycle;Signal;HPM_P1;HPM_P2
2022/09/13 04:10:04;;;;;;;3.67;3.37;;;12.90;99.90;;;;;;5337466;23;20537;-92
2022/09/13 04:12:31;;;;;;;4.43;3.47;;;12.90;99.90;;;;;;4895844;29;20538;-92
2022/09/13 04:15:19;;;;;;;4.30;3.33;;;12.90;99.90;;;;;;4886096;29;20973;-91
2022/09/13 04:18:08;;;;;;;4.00;3.63;;;12.90;99.90;;;;;;4899892;29;20485;-93
2022/09/13 04:20:56;;;;;;;4.53;3.60;;;12.80;99.90;;;;;;4914377;29;20450;-90
2022/09/13 04:23:35;;;;;;;3.50;3.17;;;12.80;99.90;;;;;;4892524;29;20459;-93
2022/09/13 04:26:05;;;;;;;4.20;3.63;;;12.70;99.90;;;;;;4905049;29;20534;-93
2022/09/13 04:28:31;;;;;;;3.50;3.20;;;12.80;99.90;;;;;;4907559;29;20451;-94
2022/09/13 04:30:56;;;;;;;3.77;3.47;;;12.70;99.90;;;;;;4900683;29;20978;-94
2022/09/13 04:33:24;;;;;;;4.20;3.33;;;12.70;99.90;;;;;;4896631;29;20188;-93
2022/09/13 04:35:58;;;;;;;5.00;3.50;;;12.70;99.90;;;;;;4897774;29;20271;-94
2022/09/13 04:38:24;;;;;;;4.17;3.87;;;12.70;99.90;;;;;;4898002;29;20439;-94
2022/09/13 04:41:00;;;;;;;4.20;3.90;;;12.70;99.90;;;;;;4910833;29;20522;-91
2022/09/13 04:43:28;;;;;;;5.17;3.97;;;13.00;99.90;;;;;;4895218;29;20427;-90
2022/09/13 04:45:58;;;;;;;4.10;3.80;;;12.90;99.90;;;;;;4892600;29;20460;-91
2022/09/13 04:48:40;;;;;;;4.13;3.83;;;12.90;99.90;;;;;;4917943;29;20192;-92
2022/09/13 04:51:06;;;;;;;4.30;3.60;;;13.00;99.90;;;;;;4906646;29;20479;-92
2022/09/13 04:53:32;;;;;;;3.80;3.50;;;13.00;99.90;;;;;;4918206;29;20539;-91
2022/09/13 04:56:04;;;;;;;4.40;4.00;;;13.40;99.90;;;;;;4922126;29;20199;-90
2022/09/13 04:58:31;;;;;;;4.90;3.60;;;13.00;99.90;;;;;;4920959;29;20257;-95
2022/09/13 05:01:09;;;;;;;4.90;3.83;;;13.00;99.90;;;;;;4898430;29;20908;-88
2022/09/13 05:03:52;;;;;;;3.83;3.53;;;13.00;99.90;;;;;;4903955;29;20759;-89
2022/09/13 05:06:19;;;;;;;5.63;4.17;;;13.00;99.90;;;;;;4878913;29;20470;-89
2022/09/13 05:09:39;;;;;;;;;;;;;;;;;;;;;
2022/09/13 05:12:05;;;;;;;32.20;28.77;;;13.00;99.90;;;;;;4865830;29;20507;-93
2022/09/13 05:14:31;;;;;;;5.10;4.70;;;13.00;99.90;;;;;;4895174;29;20458;-92
2022/09/13 05:17:12;;;;;;;4.00;3.70;;;13.50;99.90;;;;;;4889878;29;20906;-90
2022/09/13 05:19:38;;;;;;;3.93;3.63;;;13.10;99.90;;;;;;4880193;29;20351;-92
2022/09/13 05:22:03;;;;;;;4.43;3.23;;;13.10;99.90;;;;;;4887790;29;21138;-93
2022/09/13 05:24:29;;;;;;;3.87;3.60;;;13.10;99.90;;;;;;4894041;29;20195;-93
2022/09/13 05:26:54;;;;;;;3.60;3.30;;;13.20;99.90;;;;;;4891932;29;22198;-92
2022/09/13 05:29:20;;;;;;;3.97;3.33;;;13.20;99.90;;;;;;4902423;29;20190;-92
2022/09/13 05:31:46;;;;;;;6.20;4.20;;;13.10;99.90;;;;;;4894539;29;20640;-93
2022/09/13 05:34:15;;;;;;;3.77;3.53;;;13.10;99.90;;;;;;4896512;29;20646;-93
2022/09/13 05:36:41;;;;;;;6.10;4.10;;;13.20;99.90;;;;;;4901215;29;20250;-93
2022/09/13 05:39:11;;;;;;;7.67;4.20;;;13.20;99.90;;;;;;4896703;29;20716;-91
2022/09/13 05:41:37;;;;;;;3.60;3.30;;;13.20;99.90;;;;;;4893501;29;20982;-92
2022/09/13 05:44:03;;;;;;;6.53;4.17;;;13.20;99.90;;;;;;4887641;29;21232;-92
2022/09/13 05:46:28;;;;;;;4.40;4.10;;;13.20;99.90;;;;;;4889337;29;20326;-91
2022/09/13 05:48:57;;;;;;;3.93;3.53;;;13.20;99.90;;;;;;4895634;29;20230;-92
2022/09/13 05:51:32;;;;;;;3.87;3.57;;;13.20;99.90;;;;;;4895463;29;20223;-92
2022/09/13 05:54:00;;;;;;;4.10;3.80;;;13.50;99.90;;;;;;4901772;29;20526;-92
2022/09/13 05:56:28;;;;;;;4.17;3.70;;;13.30;99.90;;;;;;4898269;29;20466;-89
2022/09/13 05:58:54;;;;;;;3.77;3.47;;;13.20;99.90;;;;;;4900132;29;20443;-91
2022/09/13 06:01:25;;;;;;;6.03;4.50;;;13.30;99.90;;;;;;4898888;29;20448;-92
2022/09/13 06:03:55;;;;;;;3.97;3.60;;;13.30;99.90;;;;;;4897831;29;20310;-91
2022/09/13 06:06:21;;;;;;;3.60;3.33;;;13.30;99.90;;;;;;4901450;29;20451;-91
2022/09/13 06:08:49;;;;;;;4.20;3.50;;;13.30;99.90;;;;;;4900046;29;20526;-91
2022/09/13 06:11:18;;;;;;;4.43;4.07;;;13.30;99.90;;;;;;4897806;29;20487;-92
2022/09/13 06:13:56;;;;;;;4.27;3.90;;;13.40;99.90;;;;;;4893488;29;20530;-93
2022/09/13 06:16:22;;;;;;;4.30;3.90;;;13.50;99.90;;;;;;4897828;29;20455;-91
2022/09/13 06:18:48;;;;;;;5.20;4.63;;;13.60;99.90;;;;;;4898902;29;20799;-92
2022/09/13 06:21:19;;;;;;;4.50;4.10;;;13.70;99.90;;;;;;4902117;29;20459;-92
2022/09/13 06:23:50;;;;;;;5.50;4.00;;;13.70;99.90;;;;;;4894292;29;20961;-91
2022/09/13 06:26:18;;;;;;;4.83;3.87;;;13.80;99.90;;;;;;4894158;29;20578;-91
2022/09/13 06:28:49;;;;;;;4.07;3.77;;;13.90;99.90;;;;;;4913347;29;20436;-90
2022/09/13 06:31:16;;;;;;;3.90;3.60;;;14.20;99.90;;;;;;4892126;29;20491;-91
2022/09/13 06:33:43;;;;;;;6.13;3.97;;;14.00;99.90;;;;;;4898530;29;20431;-90
2022/09/13 06:36:11;;;;;;;4.33;3.93;;;14.00;99.90;;;;;;4900926;29;20442;-91
2022/09/13 06:38:38;;;;;;;4.37;3.97;;;13.90;99.90;;;;;;4902608;29;20443;-91
2022/09/13 06:41:09;;;;;;;3.77;3.47;;;13.90;99.90;;;;;;4917144;29;20447;-92
2022/09/13 06:43:35;;;;;;;5.03;4.63;;;13.90;99.90;;;;;;4892710;29;20547;-91
2022/09/13 06:46:16;;;;;;;4.87;4.47;;;13.90;99.90;;;;;;4897996;29;20519;-91
2022/09/13 06:48:43;;;;;;;4.20;3.77;;;14.00;99.90;;;;;;4891423;29;20470;-92
2022/09/13 06:51:13;;;;;;;5.30;4.90;;;14.00;99.90;;;;;;4900813;29;20519;-90
2022/09/13 06:53:41;;;;;;;4.97;4.57;;;14.10;99.90;;;;;;4895703;29;20571;-92
2022/09/13 06:56:13;;;;;;;4.83;4.30;;;14.20;99.90;;;;;;4892552;29;24141;-91
2022/09/13 06:58:40;;;;;;;5.30;4.80;;;14.40;99.90;;;;;;4895155;29;20957;-90
2022/09/13 07:01:13;;;;;;;5.43;4.40;;;14.40;99.90;;;;;;4901965;29;20968;-91
2022/09/13 07:03:44;;;;;;;4.20;3.90;;;14.50;99.90;;;;;;4893086;29;20806;-92
2022/09/13 07:06:17;;;;;;;5.03;4.23;;;14.60;99.90;;;;;;4879407;29;20491;-91
2022/09/13 07:08:46;;;;;;;4.83;4.53;;;14.70;99.90;;;;;;4893911;29;20448;-91
2022/09/13 07:11:14;;;;;;;4.60;4.20;;;14.90;99.90;;;;;;4881807;29;20506;-90
2022/09/13 07:13:40;;;;;;;7.70;3.70;;;14.90;99.90;;;;;;4894777;29;20533;-92
2022/09/13 07:16:10;;;;;;;3.97;3.67;;;15.10;99.90;;;;;;4910395;29;20438;-91
2022/09/13 07:18:46;;;;;;;6.83;4.73;;;15.30;99.90;;;;;;4902072;29;20436;-91
2022/09/13 07:21:15;;;;;;;4.60;4.20;;;15.40;99.90;;;;;;4901361;29;20459;-91
2022/09/13 07:23:40;;;;;;;4.50;4.20;;;15.40;99.90;;;;;;4884462;29;20459;-92
2022/09/13 07:26:06;;;;;;;5.43;3.90;;;15.50;99.90;;;;;;4891465;29;20741;-92
2022/09/13 07:28:41;;;;;;;4.17;3.87;;;15.50;99.90;;;;;;4896257;29;20224;-93
2022/09/13 07:31:16;;;;;;;3.67;3.40;;;15.70;99.90;;;;;;4901419;29;21311;-91
2022/09/13 07:33:43;;;;;;;4.00;3.70;;;15.90;99.90;;;;;;4900016;29;20466;-91
2022/09/13 07:36:13;;;;;;;3.93;3.63;;;16.10;99.90;;;;;;4897332;29;20448;-92
2022/09/13 07:38:45;;;;;;;3.80;3.50;;;16.20;99.90;;;;;;4896633;29;20487;-91
2022/09/13 07:41:17;;;;;;;3.73;3.53;;;16.40;99.90;;;;;;4896141;29;20463;-90
2022/09/13 07:43:44;;;;;;;4.23;3.80;;;16.70;99.90;;;;;;4895504;29;20439;-90
2022/09/13 07:46:22;;;;;;;3.53;3.23;;;16.90;99.90;;;;;;4914496;29;20451;-91
2022/09/13 07:49:14;;;;;;;4.30;3.40;;;17.00;99.90;;;;;;4894464;29;21329;-90
2022/09/13 07:51:52;;;;;;;3.67;3.37;;;17.10;99.90;;;;;;4893099;29;20503;-91
2022/09/13 07:54:38;;;;;;;3.60;3.30;;;17.40;99.90;;;;;;4899330;29;20506;-90
2022/09/13 07:57:06;;;;;;;4.23;3.40;;;17.50;99.90;;;;;;4892113;29;21108;-91
2022/09/13 07:59:32;;;;;;;4.10;3.57;;;17.60;99.90;;;;;;4896408;29;20447;-91
2022/09/13 08:01:57;;;;;;;3.70;3.40;;;17.70;99.90;;;;;;4896820;29;20472;-90
2022/09/13 08:04:24;;;;;;;3.30;3.03;;;18.00;99.90;;;;;;4891888;29;20655;-91
2022/09/13 08:06:50;;;;;;;3.40;2.97;;;18.10;99.90;;;;;;4901725;29;20330;-89
2022/09/13 08:09:16;;;;;;;2.90;2.50;;;18.30;99.90;;;;;;4902988;29;20527;-89
2022/09/13 08:11:44;;;;;;;2.70;2.50;;;18.50;99.90;;;;;;4896066;29;20716;-89
2022/09/13 08:14:12;;;;;;;2.87;2.70;;;18.60;99.90;;;;;;4896098;29;20502;-89
2022/09/13 08:16:38;;;;;;;3.07;2.87;;;18.70;99.90;;;;;;4896816;29;21155;-89
2022/09/13 08:19:05;;;;;;;2.80;2.60;;;18.90;99.90;;;;;;4892208;29;20507;-89
2022/09/13 08:21:36;;;;;;;3.13;2.83;;;19.30;99.90;;;;;;4887317;29;20952;-89
2022/09/13 08:24:03;;;;;;;2.80;2.47;;;19.70;99.90;;;;;;4896176;29;20436;-89
2022/09/13 08:26:34;;;;;;;3.00;2.80;;;19.90;99.90;;;;;;4910574;29;20459;-90
2022/09/13 08:29:15;;;;;;;2.80;2.50;;;20.10;99.90;;;;;;4909428;29;20442;-89
2022/09/13 08:31:41;;;;;;;2.90;2.70;;;20.10;99.90;;;;;;4906815;29;20482;-89
2022/09/13 08:34:10;;;;;;;2.80;2.37;;;20.00;99.90;;;;;;4911841;29;20448;-89
2022/09/13 08:36:39;;;;;;;3.23;2.97;;;19.90;99.90;;;;;;4910625;29;20527;-89
2022/09/13 08:39:06;;;;;;;3.00;2.57;;;19.90;99.90;;;;;;4922225;29;20442;-90
2022/09/13 08:41:53;;;;;;;2.43;2.23;;;20.10;99.90;;;;;;4920608;29;20876;-89
2022/09/13 08:44:26;;;;;;;2.27;2.17;;;20.50;99.90;;;;;;4910225;29;20822;-90
2022/09/13 08:47:15;;;;;;;2.40;2.20;;;20.70;99.90;;;;;;4902783;29;20446;-89
2022/09/13 08:49:45;;;;;;;2.73;2.53;;;21.00;99.90;;;;;;4908764;29;20435;-90
2022/09/13 08:52:35;;;;;;;2.40;2.30;;;21.30;99.90;;;;;;4919221;29;20483;-88
2022/09/13 08:55:13;;;;;;;3.37;2.07;;;21.40;99.90;;;;;;4899859;29;20917;-89
2022/09/13 08:57:54;;;;;;;2.30;2.20;;;21.60;99.90;;;;;;4906212;29;20892;-88
2022/09/13 09:00:28;;;;;;;3.60;2.80;;;21.60;99.90;;;;;;4900165;29;20474;-89
2022/09/13 09:03:09;;;;;;;2.70;2.47;;;21.90;99.90;;;;;;4903672;29;20546;-89
2022/09/13 09:05:46;;;;;;;2.23;2.10;;;22.10;99.90;;;;;;4922045;29;20501;-89
2022/09/13 09:08:38;;;;;;;2.27;2.03;;;22.20;99.90;;;;;;4909078;29;20457;-88
2022/09/13 09:11:28;;;;;;;3.73;2.10;;;22.30;99.90;;;;;;4909150;29;20791;-88
2022/09/13 09:14:22;;;;;;;2.57;2.20;;;22.40;99.60;;;;;;4907407;29;20447;-89
2022/09/13 09:16:56;;;;;;;2.40;2.07;;;22.50;99.70;;;;;;4907485;29;20526;-89
2022/09/13 09:19:40;;;;;;;2.43;2.23;;;22.20;99.90;;;;;;4908614;29;21862;-89
2022/09/13 09:22:16;;;;;;;2.27;2.17;;;22.10;99.90;;;;;;4903897;29;20808;-89
2022/09/13 09:24:45;;;;;;;2.83;2.37;;;22.00;99.90;;;;;;4904551;29;20655;-88
2022/09/13 09:27:17;;;;;;;2.40;2.20;;;22.40;99.90;;;;;;4892630;29;20451;-88
2022/09/13 09:29:43;;;;;;;2.60;1.90;;;23.10;99.90;;;;;;4896311;29;20454;-89
2022/09/13 09:32:46;;;;;;;2.30;2.20;;;23.80;99.70;;;;;;4892495;29;20798;-89
2022/09/13 09:35:19;;;;;;;2.33;2.13;;;24.00;99.40;;;;;;4895363;29;21089;-89
2022/09/13 09:38:00;;;;;;;2.33;2.20;;;23.80;96.70;;;;;;4893383;29;20475;-89
2022/09/13 09:40:29;;;;;;;1.60;1.50;;;23.60;97.00;;;;;;4893918;29;20439;-90
2022/09/13 09:43:10;;;;;;;1.90;1.70;;;23.60;96.50;;;;;;4893136;29;20952;-91
2022/09/13 09:45:45;;;;;;;4.30;2.10;;;23.80;96.30;;;;;;4894479;29;20443;-90
2022/09/13 09:48:20;;;;;;;2.40;2.27;;;24.00;95.80;;;;;;4895648;29;20542;-90
2022/09/13 09:51:04;;;;;;;2.13;2.03;;;24.20;95.40;;;;;;4906826;29;20483;-90
2022/09/13 09:53:43;;;;;;;2.07;1.90;;;24.00;94.60;;;;;;4907955;29;20448;-90
2022/09/13 09:56:23;;;;;;;3.30;2.10;;;24.10;94.30;;;;;;4900735;29;21111;-90
2022/09/13 09:58:53;;;;;;;1.70;1.60;;;24.00;95.30;;;;;;4892891;29;20546;-91
2022/09/13 10:01:35;;;;;;;2.87;2.67;;;24.00;95.50;;;;;;4891810;29;20837;-90
2022/09/13 10:04:11;;;;;;;3.23;2.10;;;24.20;95.80;;;;;;4891381;29;20447;-90
2022/09/13 10:06:39;;;;;;;2.97;1.73;;;24.20;94.40;;;;;;4914147;29;20447;-89
2022/09/13 10:09:20;;;;;;;1.77;1.67;;;24.00;94.10;;;;;;4907629;29;20456;-88
2022/09/13 10:11:52;;;;;;;2.73;2.53;;;24.10;94.80;;;;;;4898287;29;21009;-86
2022/09/13 10:14:30;;;;;;;1.80;1.70;;;24.20;94.50;;;;;;4892568;29;20451;-89
2022/09/13 10:17:23;;;;;;;2.47;2.27;;;24.30;95.40;;;;;;4892078;29;20451;-89
2022/09/13 10:20:14;;;;;;;1.90;1.80;;;24.30;95.70;;;;;;4915209;29;20446;-89
2022/09/13 10:22:41;;;;;;;1.97;1.87;;;24.50;95.90;;;;;;4912181;29;21023;-89
2022/09/13 10:25:24;;;;;;;1.83;1.73;;;24.70;92.60;;;;;;4890305;29;20439;-88
2022/09/13 10:27:56;;;;;;;2.23;1.70;;;24.80;93.00;;;;;;4895495;29;20451;-88
2022/09/13 10:30:25;;;;;;;2.20;1.97;;;25.10;93.70;;;;;;4890807;29;20452;-88
2022/09/13 10:32:55;;;;;;;2.20;2.10;;;25.10;95.30;;;;;;4890765;29;20577;-88
2022/09/13 10:35:20;;;;;;;4.50;2.20;;;25.30;94.70;;;;;;4891968;29;20466;-88
2022/09/13 10:37:46;;;;;;;2.40;2.20;;;25.80;95.70;;;;;;4889778;29;20949;-88
2022/09/13 10:40:22;;;;;;;2.30;2.10;;;26.10;95.20;;;;;;4899627;29;20559;-89
2022/09/13 10:42:57;;;;;;;4.23;2.10;;;26.50;95.00;;;;;;4895274;29;20218;-89
2022/09/13 10:45:27;;;;;;;1.90;1.70;;;26.60;91.80;;;;;;4897738;29;20455;-88
2022/09/13 10:48:13;;;;;;;2.13;1.70;;;26.30;91.60;;;;;;4912570;28;20519;-89
2022/09/13 10:50:39;;;;;;;1.70;1.57;;;25.80;91.10;;;;;;4894380;29;20798;-88
2022/09/13 10:53:38;;;;;;;2.37;1.40;;;25.90;89.80;;;;;;4889860;29;20539;-88
2022/09/13 10:56:17;;;;;;;2.33;1.43;;;26.40;86.60;;;;;;4903429;29;20282;-87
2022/09/13 10:58:42;;;;;;;1.03;1.03;;;26.70;86.20;;;;;;4893076;29;21200;-89
2022/09/13 11:01:30;;;;;;;1.10;0.90;;;27.30;84.30;;;;;;4893026;29;20448;-88
2022/09/13 11:04:33;;;;;;;1.00;1.00;;;27.70;79.00;;;;;;4895689;29;20187;-88
2022/09/13 11:07:08;;;;;;;1.20;1.10;;;27.80;81.80;;;;;;4906682;29;20471;-89
2022/09/13 11:09:54;;;;;;;1.50;1.20;;;28.00;78.30;;;;;;4895648;29;20457;-90
2022/09/13 11:12:51;;;;;;;1.57;1.47;;;28.30;78.60;;;;;;4904468;29;20481;-90
2022/09/13 11:15:44;;;;;;;1.00;1.00;;;28.10;78.20;;;;;;4896410;29;20439;-90
2022/09/13 11:18:37;;;;;;;1.30;1.20;;;28.30;79.70;;;;;;4896772;29;20504;-89
2022/09/13 11:21:40;;;;;;;1.60;1.27;;;27.90;74.80;;;;;;4894980;29;20539;-89
2022/09/13 11:24:26;;;;;;;1.50;1.40;;;28.10;75.80;;;;;;4895859;29;20451;-89
2022/09/13 11:27:09;;;;;;;1.80;1.07;;;28.20;75.10;;;;;;4887348;29;20542;-89
2022/09/13 11:29:37;;;;;;;3.40;1.17;;;28.80;76.60;;;;;;4891760;29;20462;-89
2022/09/13 11:32:24;;;;;;;1.00;1.00;;;28.90;71.90;;;;;;4900081;29;20813;-90
2022/09/13 11:34:52;;;;;;;1.10;1.00;;;28.50;69.50;;;;;;4888812;29;20439;-90
2022/09/13 11:37:24;;;;;;;1.97;1.00;;;28.40;67.40;;;;;;4886891;29;20451;-90
2022/09/13 11:40:09;;;;;;;2.07;1.03;;;28.30;68.60;;;;;;4916249;29;20448;-89
2022/09/13 11:43:00;;;;;;;0.80;0.80;;;28.40;66.60;;;;;;4900631;29;20451;-89
2022/09/13 11:45:28;;;;;;;1.10;1.00;;;28.50;64.50;;;;;;4895897;29;21057;-89
2022/09/13 11:48:18;;;;;;;1.10;1.00;;;28.30;66.30;;;;;;4896066;29;21299;-88
2022/09/13 11:50:58;;;;;;;1.40;1.30;;;28.20;67.40;;;;;;4894957;29;20447;-90
2022/09/13 11:53:49;;;;;;;0.77;0.77;;;28.60;68.50;;;;;;4894785;29;20444;-89
2022/09/13 11:56:21;;;;;;;0.90;0.90;;;28.70;61.20;;;;;;4893006;29;21128;-89
2022/09/13 11:58:57;;;;;;;1.57;1.00;;;28.10;65.80;;;;;;4896467;29;20431;-89
2022/09/13 12:01:29;;;;;;;1.17;0.90;;;28.10;67.50;;;;;;4893156;29;20447;-89
2022/09/13 12:04:16;;;;;;;1.00;1.00;;;28.20;61.60;;;;;;4904755;29;20459;-90
2022/09/13 12:06:45;;;;;;;1.00;1.00;;;28.10;61.00;;;;;;4891526;29;20531;-90
2022/09/13 12:09:24;;;;;;;0.90;0.90;;;28.30;64.60;;;;;;4892316;29;20452;-90
2022/09/13 12:12:00;;;;;;;2.03;1.10;;;28.70;63.50;;;;;;4893330;29;20495;-90
2022/09/13 12:14:33;;;;;;;0.90;0.90;;;28.90;61.10;;;;;;4909505;29;20868;-90
2022/09/13 12:17:34;;;;;;;1.00;0.90;;;29.20;62.70;;;;;;4906230;29;20455;-90
2022/09/13 12:20:04;;;;;;;1.43;1.00;;;28.60;60.10;;;;;;4893707;29;20499;-90
2022/09/13 12:22:34;;;;;;;0.90;0.90;;;28.20;59.90;;;;;;4889104;29;20913;-90
2022/09/13 12:25:06;;;;;;;3.53;0.80;;;28.00;62.30;;;;;;4891259;29;20468;-89
2022/09/13 12:27:50;;;;;;;0.70;0.70;;;27.70;59.00;;;;;;4893974;29;21149;-89
2022/09/13 12:30:25;;;;;;;2.20;0.90;;;27.60;59.80;;;;;;4897079;29;20479;-89
2022/09/13 12:32:51;;;;;;;0.63;0.63;;;28.00;61.80;;;;;;4893050;29;20479;-90
2022/09/13 12:35:53;;;;;;;1.27;0.90;;;28.60;59.20;;;;;;4912699;29;21016;-89
2022/09/13 12:38:40;;;;;;;0.90;0.90;;;29.00;60.70;;;;;;4894027;29;20450;-89
2022/09/13 12:41:27;;;;;;;0.80;0.67;;;29.10;59.60;;;;;;4903983;29;20444;-90
2022/09/13 12:44:14;;;;;;;0.50;0.50;;;28.80;52.60;;;;;;4895519;29;20443;-89
2022/09/13 12:47:13;;;;;;;0.50;0.50;;;29.20;53.60;;;;;;4897164;29;20451;-89
2022/09/13 12:49:58;;;;;;;0.70;0.70;;;29.10;53.90;;;;;;4907418;29;20481;-89
2022/09/13 12:52:55;;;;;;;2.53;0.70;;;29.20;57.30;;;;;;4901935;29;20794;-89
2022/09/13 12:55:30;;;;;;;0.60;0.60;;;29.60;57.20;;;;;;4886876;29;20798;-88
2022/09/13 12:58:34;;;;;;;0.60;0.60;;;30.10;55.10;;;;;;4894046;29;20478;-90
2022/09/13 13:01:18;;;;;;;0.50;0.50;;;30.70;51.50;;;;;;4869444;29;20539;-89
2022/09/13 13:03:50;;;;;;;0.50;0.50;;;30.90;47.20;;;;;;4892473;29;20486;-90
2022/09/13 13:06:40;;;;;;;0.60;0.60;;;30.90;50.00;;;;;;4902913;29;20439;-89
2022/09/13 13:09:46;;;;;;;0.80;0.47;;;30.20;52.20;;;;;;4901463;29;20791;-90
2022/09/13 13:12:38;;;;;;;0.40;0.40;;;30.20;52.40;;;;;;4903691;29;20526;-89
2022/09/13 13:15:33;;;;;;;0.40;0.40;;;29.80;50.00;;;;;;4865359;29;20961;-89
2022/09/13 13:18:22;;;;;;;0.87;0.50;;;29.90;47.60;;;;;;4903268;29;20470;-90
2022/09/13 13:20:53;;;;;;;1.00;1.00;;;30.10;48.10;;;;;;4907841;29;21178;-90
2022/09/13 13:23:34;;;;;;;0.97;0.60;;;30.30;50.70;;;;;;4902219;29;20855;-90
2022/09/13 13:26:19;;;;;;;1.27;1.13;;;30.70;49.10;;;;;;4890823;29;20457;-89
2022/09/13 13:28:46;;;;;;;0.70;0.70;;;31.20;53.10;;;;;;4896231;29;20462;-90
2022/09/13 13:31:24;;;;;;;1.10;0.90;;;31.40;53.20;;;;;;4891731;29;20721;-90
2022/09/13 13:34:04;;;;;;;1.70;0.60;;;31.30;47.60;;;;;;4897327;29;20466;-89
2022/09/13 13:36:40;;;;;;;0.80;0.80;;;31.70;48.80;;;;;;4908167;29;20543;-90
2022/09/13 13:39:24;;;;;;;1.63;1.00;;;31.10;51.60;;;;;;4895953;29;21261;-89
2022/09/13 13:42:12;;;;;;;0.90;0.90;;;30.50;53.20;;;;;;4893619;29;20471;-89
2022/09/13 13:44:37;;;;;;;1.60;0.80;;;30.20;54.40;;;;;;4885737;29;20440;-91
2022/09/13 13:47:44;;;;;;;2.20;1.83;;;29.70;57.60;;;;;;4923956;29;22118;-95
2022/09/13 13:51:36;;;;;;;1.23;1.23;;;29.30;58.80;;;;;;4912316;29;20275;-95
2022/09/13 13:54:38;;;;;;;1.07;1.07;;;28.80;57.70;;;;;;4895766;29;20613;-95
2022/09/13 13:57:28;;;;;;;1.17;1.00;;;28.60;57.70;;;;;;4895957;29;20443;-95
2022/09/13 14:00:38;;;;;;;1.20;1.10;;;29.30;56.30;;;;;;4913362;29;20455;-95
2022/09/13 14:03:48;;;;;;;1.00;0.90;;;30.40;56.50;;;;;;4920203;29;20462;-96
2022/09/13 14:06:22;;;;;;;1.00;0.90;;;30.50;55.40;;;;;;4898460;29;20444;-95
2022/09/13 14:09:30;;;;;;;1.80;1.00;;;30.60;51.80;;;;;;4903451;29;21170;-96
2022/09/13 14:12:14;;;;;;;0.60;0.60;;;32.00;54.40;;;;;;4896639;29;20486;-96
2022/09/13 14:14:52;;;;;;;1.63;0.80;;;33.50;50.10;;;;;;4899885;29;21199;-96
2022/09/13 14:18:04;;;;;;;3.80;1.33;;;33.60;46.70;;;;;;4897510;29;20478;-95
2022/09/13 14:20:29;;;;;;;1.07;1.07;;;34.90;44.00;;;;;;4923752;29;21140;-96
2022/09/13 14:23:17;;;;;;;0.83;0.83;;;37.90;43.40;;;;;;4905703;29;20449;-95
2022/09/13 14:25:44;;;;;;;3.40;1.00;;;38.20;39.60;;;;;;4909714;29;20266;-96
2022/09/13 14:28:43;;;;;;;1.63;0.80;;;37.10;37.70;;;;;;4926338;29;20446;-94
2022/09/13 14:31:19;;;;;;;0.80;0.80;;;35.50;40.10;;;;;;4919600;29;20481;-94
2022/09/13 14:33:46;;;;;;;2.30;1.00;;;34.70;44.50;;;;;;4910502;29;20434;-96
2022/09/13 14:36:42;;;;;;;1.13;1.03;;;33.50;45.70;;;;;;4924263;29;20453;-95
2022/09/13 14:39:58;;;;;;;0.93;0.93;;;32.50;48.70;;;;;;4909597;29;21035;-96
2022/09/13 14:42:24;;;;;;;2.30;0.90;;;31.90;49.60;;;;;;4906967;29;21434;-95
2022/09/13 14:44:49;;;;;;;2.57;0.80;;;31.40;44.10;;;;;;4911437;29;20439;-96
2022/09/13 14:47:15;;;;;;;0.87;0.87;;;30.70;44.60;;;;;;4910300;29;20208;-92
2022/09/13 14:49:48;;;;;;;1.13;0.80;;;30.20;45.40;;;;;;4910110;29;20176;-94
2022/09/13 14:52:50;;;;;;;1.07;0.90;;;29.90;47.40;;;;;;4922863;29;20234;-94
2022/09/13 14:55:28;;;;;;;1.20;1.10;;;29.90;47.70;;;;;;4901051;29;20522;-95
2022/09/13 14:58:28;;;;;;;1.37;0.83;;;30.10;48.30;;;;;;4912060;29;20454;-95
2022/09/13 15:01:09;;;;;;;0.80;0.80;;;30.30;48.80;;;;;;4906577;29;20439;-94
2022/09/13 15:03:41;;;;;;;0.90;0.90;;;30.40;51.30;;;;;;4907042;29;20541;-89
2022/09/13 15:06:23;;;;;;;1.53;1.17;;;30.30;50.80;;;;;;4896582;29;20462;-91
2022/09/13 15:08:49;;;;;;;1.20;1.10;;;30.00;52.10;;;;;;4905633;29;20467;-94
2022/09/13 15:11:50;;;;;;;1.20;1.10;;;29.80;52.30;;;;;;4902954;29;20504;-92
2022/09/13 15:14:33;;;;;;;2.87;1.40;;;29.40;52.80;;;;;;4909530;29;20463;-92
2022/09/13 15:17:05;;;;;;;1.20;1.10;;;29.10;54.20;;;;;;4911201;29;20573;-91
2022/09/13 15:19:44;;;;;;;1.20;1.10;;;29.00;55.90;;;;;;4889776;29;20447;-90
2022/09/13 15:22:37;;;;;;;1.73;1.07;;;28.70;60.50;;;;;;4912088;29;20476;-92
2022/09/13 15:25:04;;;;;;;2.20;1.17;;;28.40;60.00;;;;;;4892679;29;21040;-93
2022/09/13 15:27:57;;;;;;;1.23;1.10;;;28.30;60.70;;;;;;4896951;29;20443;-93
2022/09/13 15:30:28;;;;;;;2.40;1.67;;;28.20;62.80;;;;;;4904314;29;20466;-91
2022/09/13 15:33:10;;;;;;;3.30;1.27;;;28.40;61.70;;;;;;4896767;29;20992;-91
2022/09/13 15:35:46;;;;;;;1.00;1.00;;;28.40;65.70;;;;;;4909747;29;20553;-92
2022/09/13 15:38:29;;;;;;;1.23;1.23;;;28.30;66.00;;;;;;4899713;29;20845;-91
2022/09/13 15:41:28;;;;;;;1.20;1.17;;;28.20;65.40;;;;;;4893344;29;21067;-92
2022/09/13 15:44:15;;;;;;;2.00;1.10;;;28.20;65.30;;;;;;4892250;29;20535;-91
2022/09/13 15:47:04;;;;;;;1.60;1.40;;;28.10;67.90;;;;;;4893584;29;20450;-92
2022/09/13 15:49:35;;;;;;;1.23;1.13;;;28.00;73.30;;;;;;4896859;29;21682;-92
2022/09/13 15:52:09;;;;;;;2.13;1.50;;;27.80;71.20;;;;;;4908692;29;22237;-91
2022/09/13 15:54:37;;;;;;;1.30;1.20;;;27.50;73.40;;;;;;4907610;29;20795;-92
2022/09/13 15:57:20;;;;;;;1.40;1.30;;;27.30;74.80;;;;;;4891365;29;21509;-92
2022/09/13 16:00:40;;;;;;;1.30;1.20;;;27.00;73.40;;;;;;4870752;29;20444;-91
2022/09/13 16:03:08;;;;;;;1.90;1.13;;;26.80;74.90;;;;;;4890656;29;20447;-91
2022/09/13 16:05:35;;;;;;;1.93;1.73;;;26.40;79.90;;;;;;4875068;29;20502;-90
2022/09/13 16:08:01;;;;;;;2.20;1.30;;;26.00;78.80;;;;;;4891966;29;20449;-89
2022/09/13 16:10:37;;;;;;;3.17;1.50;;;25.70;79.40;;;;;;4884518;29;20527;-93
2022/09/13 16:13:06;;;;;;;2.90;1.50;;;25.50;80.70;;;;;;4890238;29;20486;-92
2022/09/13 16:15:47;;;;;;;2.80;1.70;;;25.30;81.40;;;;;;4887771;29;20574;-90
2022/09/13 16:18:27;;;;;;;1.30;1.20;;;25.10;81.90;;;;;;4883575;29;20444;-90
2022/09/13 16:21:28;;;;;;;1.73;1.40;;;25.00;83.00;;;;;;4877855;29;20446;-91
2022/09/13 16:24:02;;;;;;;1.17;1.07;;;24.90;84.20;;;;;;4886183;29;20451;-93
2022/09/13 16:26:39;;;;;;;1.50;1.33;;;24.80;84.70;;;;;;4883422;29;21821;-91
2022/09/13 16:29:14;;;;;;;1.63;1.53;;;24.60;84.30;;;;;;4886554;29;20856;-95
2022/09/13 16:31:56;;;;;;;2.27;1.50;;;24.60;85.50;;;;;;4907336;29;20957;-94
2022/09/13 16:34:24;;;;;;;4.60;1.60;;;24.60;85.90;;;;;;4905656;29;20674;-96
2022/09/13 16:37:13;;;;;;;3.00;1.40;;;24.60;88.20;;;;;;4907967;29;20471;-94
2022/09/13 16:39:40;;;;;;;3.00;1.50;;;24.60;87.10;;;;;;4907678;29;20455;-95
2022/09/13 16:42:16;;;;;;;2.20;1.50;;;24.50;86.90;;;;;;4882225;29;20459;-95
2022/09/13 16:44:43;;;;;;;3.10;1.77;;;24.40;87.70;;;;;;4887976;29;20541;-94
2022/09/13 16:47:09;;;;;;;2.10;1.90;;;24.50;88.10;;;;;;4906782;29;20535;-96
2022/09/13 16:50:02;;;;;;;2.00;1.80;;;24.50;88.80;;;;;;4925782;29;21382;-93
2022/09/13 16:52:44;;;;;;;2.13;2.00;;;24.50;90.50;;;;;;4916791;29;20482;-96
2022/09/13 16:55:13;;;;;;;2.67;2.03;;;24.50;90.50;;;;;;4924771;29;20426;-96
2022/09/13 16:57:43;;;;;;;2.43;1.77;;;24.50;91.00;;;;;;4933680;29;20486;-96
2022/09/13 17:00:11;;;;;;;2.63;2.00;;;24.40;91.10;;;;;;4935112;29;20466;-96
2022/09/13 17:02:40;;;;;;;2.10;1.90;;;24.30;93.20;;;;;;4929295;29;20455;-96
2022/09/13 17:05:37;;;;;;;3.20;2.10;;;24.10;95.30;;;;;;4913260;29;20505;-96
2022/09/13 17:51:19;;;;;;;2.80;1.40;;;22.40;99.20;;;;;;4919083;29;20492;-93
2022/09/13 17:54:05;;;;;;;1.70;1.60;;;22.40;98.90;;;;;;4910937;29;20538;-92
2022/09/13 17:56:44;;;;;;;2.33;2.03;;;22.30;99.10;;;;;;4897697;28;20506;-93
2022/09/13 17:59:18;;;;;;;2.33;1.83;;;22.30;99.00;;;;;;4911985;29;20455;-92
2022/09/13 18:02:01;;;;;;;4.77;1.80;;;22.30;99.10;;;;;;4899025;29;20460;-91
2022/09/13 18:04:39;;;;;;;3.83;1.90;;;22.10;99.50;;;;;;4904049;29;20556;-89
2022/09/13 18:07:05;;;;;;;1.80;1.70;;;22.00;99.90;;;;;;4902793;29;21172;-90
2022/09/13 18:09:53;;;;;;;2.30;2.20;;;21.90;99.90;;;;;;4918529;29;20423;-91
2022/09/13 18:12:18;;;;;;;3.07;2.20;;;21.90;99.90;;;;;;4895600;29;20810;-92
2022/09/13 18:14:47;;;;;;;2.00;1.73;;;21.80;99.90;;;;;;4909953;29;20443;-91
2022/09/13 18:17:39;;;;;;;2.70;1.77;;;21.70;99.90;;;;;;4891951;29;20196;-91
2022/09/13 18:20:13;;;;;;;1.87;1.77;;;21.60;99.90;;;;;;4896665;29;21098;-91
2022/09/13 18:23:12;;;;;;;2.43;2.23;;;21.60;99.90;;;;;;4908564;29;20452;-92
2022/09/13 18:25:38;;;;;;;2.33;1.60;;;21.70;99.90;;;;;;4913124;29;20447;-91
2022/09/13 18:28:15;;;;;;;2.90;1.90;;;21.70;99.90;;;;;;4906424;29;21654;-92
2022/09/13 18:31:25;;;;;;;2.00;1.90;;;21.70;99.90;;;;;;4896071;29;20191;-93
2022/09/13 18:34:15;;;;;;;1.80;1.70;;;21.60;99.90;;;;;;4903976;29;20467;-92